Time;durP1;ratioP1;P1;durP2;ratioP2;P2;SDS_P1;SDS_P2;PMS_P1;PMS_P2;Temp;Humidity;BMP_temperature;BMP_pressure;BME280_temperature;BME280_humidity;BME280_pressure;Samples;Min_cycle;Max_cycle;Signal;HPM_P1;HPM_P2
2021/12/27 00:00:13;;;;;;;;;;;;;;;-12.34;74.31;96479.75;6398550;27;20467;-66
2021/12/27 00:03:14;;;;;;;;;;;;;;;-12.26;74.70;96490.84;6398049;27;19926;-66
2021/12/27 00:06:18;;;;;;;;;;;;;;;-12.15;74.48;96485.97;6398776;27;19976;-65
2021/12/27 00:09:19;;;;;;;;;;;;;;;-11.89;74.05;96488.91;6397686;27;19923;-66
2021/12/27 00:12:21;;;;;;;;;;;;;;;-11.91;74.12;96500.75;6397854;27;19923;-66
2021/12/27 00:15:22;;;;;;;;;;;;;;;-11.87;73.49;96484.72;6398732;27;19979;-66
2021/12/27 00:18:24;;;;;;;;;;;;;;;-11.93;73.96;96507.47;6398473;27;20067;-66
2021/12/27 00:21:25;;;;;;;;;;;;;;;-11.90;73.67;96476.22;6397660;27;20075;-66
2021/12/27 00:24:28;;;;;;;;;;;;;;;-11.93;74.24;96479.56;6398132;27;19923;-67
2021/12/27 00:27:29;;;;;;;;;;;;;;;-11.97;73.75;96457.53;6396993;27;19930;-67
2021/12/27 00:30:33;;;;;;;;;;;;;;;-11.89;73.69;96461.00;6397497;27;19923;-66
2021/12/27 00:33:34;;;;;;;;;;;;;;;-12.03;74.50;96454.88;6398044;27;20092;-66
2021/12/27 00:36:35;;;;;;;;;;;;;;;-11.90;74.31;96449.16;6397594;27;19922;-66
2021/12/27 00:39:39;;;;;;;;;;;;;;;-11.81;74.34;96446.72;6397741;27;19923;-66
2021/12/27 00:42:42;;;;;;;;;;;;;;;-11.81;74.54;96451.81;6397006;27;19923;-67
2021/12/27 00:45:43;;;;;;;;;;;;;;;-11.73;74.28;96440.94;6396861;27;19923;-66
2021/12/27 00:48:45;;;;;;;;;;;;;;;-11.92;74.77;96438.13;6397094;27;19923;-66
2021/12/27 00:51:46;;;;;;;;;;;;;;;-11.64;74.77;96453.75;6397658;27;19923;-67
2021/12/27 00:54:52;;;;;;;;;;;;;;;-11.61;74.32;96453.78;6397895;27;19923;-66
2021/12/27 00:57:53;;;;;;;;;;;;;;;-11.57;74.53;96456.41;6396719;27;19923;-66
2021/12/27 01:00:54;;;;;;;;;;;;;;;-11.60;74.25;96440.28;6396591;27;20407;-67
2021/12/27 01:03:55;;;;;;;;;;;;;;;-11.53;74.23;96437.81;6396935;27;19958;-66
2021/12/27 01:06:59;;;;;;;;;;;;;;;-11.54;74.54;96435.28;6397535;27;20343;-66
2021/12/27 01:13:26;;;;;;;;;;;;;;;-11.77;75.00;96432.41;6397474;27;19930;-66
2021/12/27 01:16:30;;;;;;;;;;;;;;;-11.75;74.58;96425.66;6397505;27;20407;-66
2021/12/27 01:19:34;;;;;;;;;;;;;;;-11.73;74.74;96428.25;6397270;27;19930;-66
2021/12/27 01:22:35;;;;;;;;;;;;;;;-11.80;74.98;96422.22;6396675;27;19923;-66
2021/12/27 01:25:41;;;;;;;;;;;;;;;-11.60;74.74;96432.66;6397207;27;19923;-67
2021/12/27 01:28:45;;;;;;;;;;;;;;;-11.52;74.68;96428.50;6396047;27;19930;-66
2021/12/27 01:31:46;;;;;;;;;;;;;;;-11.56;75.04;96421.72;6397388;27;19923;-66
2021/12/27 01:34:47;;;;;;;;;;;;;;;-11.45;74.87;96415.09;6397083;27;19946;-67
2021/12/27 01:37:50;;;;;;;;;;;;;;;-11.46;74.47;96421.00;6397309;27;19923;-67
2021/12/27 01:40:55;;;;;;;;;;;;;;;-11.26;74.85;96428.00;6397178;27;19923;-65
2021/12/27 01:43:57;;;;;;;;;;;;;;;-11.33;74.75;96404.22;6397107;27;19923;-66
2021/12/27 01:46:58;;;;;;;;;;;;;;;-11.44;74.83;96409.16;6396771;27;19930;-66
2021/12/27 01:50:02;;;;;;;;;;;;;;;-11.28;75.18;96406.84;6396768;27;19923;-66
2021/12/27 01:53:06;;;;;;;;;;;;;;;-11.18;74.89;96411.19;6396028;27;19945;-66
2021/12/27 01:56:08;;;;;;;;;;;;;;;-11.14;74.84;96405.31;6396420;27;20411;-66
2021/12/27 01:59:09;;;;;;;;;;;;;;;-11.08;75.36;96405.38;6395874;27;20399;-67
2021/12/27 02:02:11;;;;;;;;;;;;;;;-11.22;75.41;96406.91;6395902;27;19930;-66
2021/12/27 02:05:13;;;;;;;;;;;;;;;-10.95;75.31;96416.56;6396882;27;19949;-67
2021/12/27 02:08:16;;;;;;;;;;;;;;;-10.89;74.97;96417.47;6396398;27;19923;-66
2021/12/27 02:11:19;;;;;;;;;;;;;;;-10.88;75.19;96413.22;6395504;27;19923;-66
2021/12/27 02:14:20;;;;;;;;;;;;;;;-10.93;75.11;96407.25;6396450;27;19945;-66
2021/12/27 02:17:22;;;;;;;;;;;;;;;-10.80;75.17;96395.53;6396488;27;19948;-67
2021/12/27 02:20:27;;;;;;;;;;;;;;;-10.98;75.73;96397.03;6377571;27;19923;-66
2021/12/27 02:23:28;;;;;;;;;;;;;;;-10.83;75.22;96395.50;6378070;27;19930;-66
2021/12/27 02:26:30;;;;;;;;;;;;;;;-10.83;75.95;96395.50;6395640;27;20316;-66
2021/12/27 02:29:31;;;;;;;;;;;;;;;-10.67;75.64;96388.03;6375040;27;19931;-66
2021/12/27 02:32:32;;;;;;;;;;;;;;;-10.70;75.81;96388.03;6375121;27;19927;-65
2021/12/27 02:35:35;;;;;;;;;;;;;;;-10.56;75.67;96387.28;6374742;27;20470;-66
2021/12/27 02:38:41;;;;;;;;;;;;;;;-10.51;75.66;96393.25;6375115;27;19923;-66
2021/12/27 02:41:45;;;;;;;;;;;;;;;-10.44;75.40;96395.88;6374965;27;20308;-65
2021/12/27 02:44:48;;;;;;;;;;;;;;;-10.20;75.00;96401.97;6374739;27;20300;-65
2021/12/27 02:47:52;;;;;;;;;;;;;;;-10.25;75.15;96406.16;6374627;27;19924;-65
2021/12/27 02:50:54;;;;;;;;;;;;;;;-10.22;75.05;96406.19;6374234;27;19923;-66
2021/12/27 02:53:57;;;;;;;;;;;;;;;-10.28;75.38;96398.56;6374330;27;19924;-66
2021/12/27 02:56:58;;;;;;;;;;;;;;;-10.27;75.78;96403.66;6374606;27;19931;-66
2021/12/27 03:00:00;;;;;;;;;;;;;;;-10.17;75.42;96390.13;6373250;27;19930;-66
2021/12/27 03:03:01;;;;;;;;;;;;;;;-10.05;75.28;96391.06;6374336;27;20565;-66
2021/12/27 03:06:03;;;;;;;;;;;;;;;-10.06;75.65;96380.03;6373746;27;19925;-66
2021/12/27 03:09:04;;;;;;;;;;;;;;;-9.98;75.90;96386.03;6373603;27;19923;-67
2021/12/27 03:12:11;;;;;;;;;;;;;;;-10.07;75.93;96396.16;6374022;27;19934;-66
2021/12/27 03:15:17;;;;;;;;;;;;;;;-9.97;75.93;96403.00;6373879;27;19924;-67
2021/12/27 03:18:18;;;;;;;;;;;;;;;-10.08;76.05;96379.16;6373995;27;20308;-66
2021/12/27 03:21:22;;;;;;;;;;;;;;;-10.06;76.75;96387.69;6374022;27;19923;-67
2021/12/27 03:24:23;;;;;;;;;;;;;;;-9.94;76.20;96382.66;6373335;27;19923;-66
2021/12/27 03:27:25;;;;;;;;;;;;;;;-9.85;76.18;96387.00;6380480;27;20296;-66
2021/12/27 03:30:29;;;;;;;;;;;;;;;-9.76;76.40;96393.84;6380621;27;19923;-65
2021/12/27 03:33:30;;;;;;;;;;;;;;;-9.85;76.06;96376.81;6399386;27;19922;-66
2021/12/27 03:36:40;;;;;;;;;;;;;;;-9.94;76.36;96372.47;6399569;27;19923;-66
2021/12/27 03:39:41;;;;;;;;;;;;;;;-9.77;77.28;96385.31;6396863;27;19923;-67
2021/12/27 03:42:52;;;;;;;;;;;;;;;-9.80;76.97;96380.22;6398979;27;20332;-67
2021/12/27 03:45:53;;;;;;;;;;;;;;;-9.71;76.75;96374.31;6398192;27;19923;-66
2021/12/27 03:48:54;;;;;;;;;;;;;;;-9.65;76.92;96370.97;6398005;27;20413;-67
2021/12/27 03:51:57;;;;;;;;;;;;;;;-9.60;77.64;96387.97;6398882;27;19926;-68
2021/12/27 03:55:00;;;;;;;;;;;;;;;-9.63;77.68;96390.50;6398843;27;19923;-67
2021/12/27 03:58:23;;;;;;;;;;;;;;;-9.49;77.46;96386.34;6398890;27;19927;-66
2021/12/27 04:01:27;;;;;;;;;;;;;;;-9.45;77.24;96396.53;6398222;27;19945;-67
2021/12/27 04:04:28;;;;;;;;;;;;;;;-9.22;77.13;96394.13;6398521;27;19923;-66
2021/12/27 04:07:34;;;;;;;;;;;;;;;-9.37;77.09;96407.63;6379153;27;20316;-66
2021/12/27 04:10:37;;;;;;;;;;;;;;;-9.28;76.91;96410.25;6398294;27;19923;-66
2021/12/27 04:13:43;;;;;;;;;;;;;;;-9.26;76.63;96405.97;6398513;27;19919;-64
2021/12/27 04:16:46;;;;;;;;;;;;;;;-9.22;77.13;96405.16;6396569;27;19930;-66
2021/12/27 04:19:47;;;;;;;;;;;;;;;-9.31;77.28;96416.16;6398034;27;19919;-67
2021/12/27 04:22:50;;;;;;;;;;;;;;;-9.41;77.50;96408.47;6398366;27;20010;-65
2021/12/27 04:25:51;;;;;;;;;;;;;;;-9.22;77.70;96410.25;6397505;27;19930;-66
2021/12/27 04:28:52;;;;;;;;;;;;;;;-9.14;78.03;96403.50;6397249;27;20025;-67
2021/12/27 04:31:56;;;;;;;;;;;;;;;-9.05;77.71;96403.53;6397364;27;19923;-66
2021/12/27 04:34:57;;;;;;;;;;;;;;;-8.89;77.34;96399.34;6397896;27;19922;-66
2021/12/27 04:38:01;;;;;;;;;;;;;;;-9.10;77.66;96399.25;6397837;27;19923;-65
2021/12/27 04:41:03;;;;;;;;;;;;;;;-9.09;78.21;96403.50;6396006;27;19923;-66
2021/12/27 04:44:07;;;;;;;;;;;;;;;-8.79;77.42;96400.22;6397752;27;20303;-66
2021/12/27 04:47:12;;;;;;;;;;;;;;;-8.96;77.43;96391.69;6397759;27;19930;-66
2021/12/27 04:50:14;;;;;;;;;;;;;;;-8.89;78.15;96395.94;6396209;27;19932;-66
2021/12/27 04:53:15;;;;;;;;;;;;;;;-8.96;78.10;96391.69;6396373;27;19919;-66
2021/12/27 04:56:16;;;;;;;;;;;;;;;-8.96;78.86;96406.97;6396467;27;20341;-66
2021/12/27 04:59:19;;;;;;;;;;;;;;;-8.86;78.83;96398.47;6397196;27;20017;-66
2021/12/27 05:02:25;;;;;;;;;;;;;;;-8.59;77.93;96400.28;6397446;27;19923;-65
2021/12/27 05:05:32;;;;;;;;;;;;;;;-8.45;77.90;96395.19;6397274;27;20406;-66
2021/12/27 05:08:35;;;;;;;;;;;;;;;-8.67;78.09;96405.34;6396337;27;19923;-66
2021/12/27 05:11:36;;;;;;;;;;;;;;;-8.56;78.11;96402.81;6377737;27;19930;-66
2021/12/27 05:14:37;;;;;;;;;;;;;;;-8.68;77.98;96398.56;6397128;27;19937;-66
2021/12/27 05:17:41;;;;;;;;;;;;;;;-8.44;78.41;96396.88;6397232;27;19923;-65
2021/12/27 05:20:42;;;;;;;;;;;;;;;-8.60;78.54;96407.06;6396922;27;20330;-66
2021/12/27 05:23:43;;;;;;;;;;;;;;;-8.25;78.70;96403.69;6395980;27;19923;-66
2021/12/27 05:26:46;;;;;;;;;;;;;;;-7.88;78.07;96403.69;6396812;27;19923;-65
2021/12/27 05:29:47;;;;;;;;;;;;;;;-7.54;77.14;96398.56;6396786;27;20402;-66
2021/12/27 05:32:51;;;;;;;;;;;;;;;-7.26;77.05;96400.19;6378619;27;19922;-66
2021/12/27 05:35:52;;;;;;;;;;;;;;;-7.12;76.73;96394.19;6396153;27;20029;-66
2021/12/27 05:38:53;;;;;;;;;;;;;;;-7.04;76.89;96405.25;6396242;27;20417;-66
2021/12/27 05:41:54;;;;;;;;;;;;;;;-6.79;77.01;96406.84;6396222;27;19923;-66
2021/12/27 05:44:55;;;;;;;;;;;;;;;-6.62;75.91;96416.16;6395776;27;20022;-66
2021/12/27 05:47:58;;;;;;;;;;;;;;;-6.75;75.85;96419.63;6395627;27;19949;-66
2021/12/27 05:50:59;;;;;;;;;;;;;;;-6.64;77.16;96420.41;6395889;27;19946;-66
2021/12/27 05:54:02;;;;;;;;;;;;;;;-6.50;75.94;96421.19;6395827;27;19927;-65
2021/12/27 05:57:04;;;;;;;;;;;;;;;-6.40;75.42;96422.81;6395995;27;19930;-66
2021/12/27 06:00:09;;;;;;;;;;;;;;;-6.42;75.69;96427.13;6395744;27;19930;-65
2021/12/27 06:03:10;;;;;;;;;;;;;;;-6.42;75.21;96422.00;6398730;27;20396;-66
2021/12/27 06:06:11;;;;;;;;;;;;;;;-6.40;75.90;96427.09;6400511;27;20015;-66
2021/12/27 06:09:15;;;;;;;;;;;;;;;-6.35;74.86;96425.38;6401458;27;20327;-65
2021/12/27 06:12:16;;;;;;;;;;;;;;;-6.35;75.66;96422.81;6382960;27;19930;-65
2021/12/27 06:15:17;;;;;;;;;;;;;;;-6.27;75.35;96430.44;6401266;27;19923;-65
2021/12/27 06:18:21;;;;;;;;;;;;;;;-6.40;75.00;96438.19;6400311;27;19922;-67
2021/12/27 06:21:24;;;;;;;;;;;;;;;-6.12;75.33;96445.69;6401397;27;19923;-66
2021/12/27 06:24:25;;;;;;;;;;;;;;;-6.37;75.39;96440.75;6400517;27;19922;-66
2021/12/27 06:27:26;;;;;;;;;;;;;;;-6.16;74.90;96446.59;6382373;27;19975;-67
2021/12/27 06:30:27;;;;;;;;;;;;;;;-6.27;75.75;96450.94;6400771;27;19922;-66
2021/12/27 06:33:31;;;;;;;;;;;;;;;-6.10;75.02;96449.97;6400811;27;19923;-65
2021/12/27 06:36:32;;;;;;;;;;;;;;;-6.05;74.74;96442.25;6400112;27;20356;-66
2021/12/27 06:39:34;;;;;;;;;;;;;;;-5.96;75.39;96447.31;6400242;27;20442;-67
2021/12/27 06:42:38;;;;;;;;;;;;;;;-5.91;74.86;96455.78;6399853;27;19923;-65
2021/12/27 06:45:41;;;;;;;;;;;;;;;-5.84;74.07;96441.19;6400491;27;19923;-66
2021/12/27 06:48:42;;;;;;;;;;;;;;;-5.93;74.53;96452.38;6399368;27;20304;-66
2021/12/27 06:51:45;;;;;;;;;;;;;;;-5.55;74.39;96452.94;6399548;27;20596;-65
2021/12/27 06:54:47;;;;;;;;;;;;;;;-5.61;74.20;96448.72;6399453;27;19930;-65
2021/12/27 06:57:51;;;;;;;;;;;;;;;-5.32;73.42;96439.91;6400450;27;20059;-66
2021/12/27 07:00:54;;;;;;;;;;;;;;;-5.37;73.38;96457.06;6400306;27;19923;-66
2021/12/27 07:03:55;;;;;;;;;;;;;;;-5.31;73.29;96451.88;6399636;27;19945;-66
2021/12/27 07:06:59;;;;;;;;;;;;;;;-5.40;73.45;96468.19;6400189;27;20338;-66
2021/12/27 07:10:00;;;;;;;;;;;;;;;-5.44;72.96;96451.97;6399998;27;19930;-66
2021/12/27 07:13:03;;;;;;;;;;;;;;;-5.50;73.42;96457.16;6398396;27;20403;-66
2021/12/27 07:16:05;;;;;;;;;;;;;;;-5.70;73.10;96448.78;6380641;27;19923;-65
2021/12/27 07:19:09;;;;;;;;;;;;;;;-5.77;73.01;96462.53;6399826;27;19980;-66
2021/12/27 07:22:10;;;;;;;;;;;;;;;-5.73;73.06;96453.94;6399209;27;19923;-65
2021/12/27 07:25:13;;;;;;;;;;;;;;;-5.80;72.97;96452.28;6399812;27;19931;-65
2021/12/27 07:28:15;;;;;;;;;;;;;;;-5.87;73.52;96465.13;6398063;27;19923;-66
2021/12/27 07:31:18;;;;;;;;;;;;;;;-5.94;73.78;96460.97;6399534;27;19923;-66
2021/12/27 07:34:24;;;;;;;;;;;;;;;-5.84;73.85;96468.53;6399278;27;19922;-66
2021/12/27 07:37:27;;;;;;;;;;;;;;;-5.63;72.92;96465.84;6398986;27;19960;-65
2021/12/27 07:40:33;;;;;;;;;;;;;;;-5.45;72.06;96470.78;6399348;27;19923;-66
2021/12/27 07:43:34;;;;;;;;;;;;;;;-5.17;71.72;96465.41;6398337;27;20304;-66
2021/12/27 07:46:42;;;;;;;;;;;;;;;-4.89;71.46;96470.28;6399217;27;19929;-66
2021/12/27 07:49:43;;;;;;;;;;;;;;;-4.72;71.35;96463.22;6397785;27;20328;-66
2021/12/27 07:52:44;;;;;;;;;;;;;;;-4.28;69.70;96466.94;6397949;27;19930;-67
2021/12/27 07:55:45;;;;;;;;;;;;;;;-4.08;68.43;96466.69;6397771;27;19929;-66
2021/12/27 07:58:47;;;;;;;;;;;;;;;-4.08;67.90;96466.69;6397754;27;19923;-67
2021/12/27 08:01:48;;;;;;;;;;;;;;;-3.88;66.80;96464.69;6397920;27;20450;-66
2021/12/27 08:04:49;;;;;;;;;;;;;;;-3.42;67.14;96457.97;6397831;27;19923;-66
2021/12/27 08:07:52;;;;;;;;;;;;;;;-2.67;65.95;96468.66;6397910;27;20022;-66
2021/12/27 08:10:54;;;;;;;;;;;;;;;-2.06;62.89;96467.41;6397766;27;19929;-65
2021/12/27 08:13:59;;;;;;;;;;;;;;;-2.03;62.74;96472.50;6398546;27;19976;-64
2021/12/27 08:17:02;;;;;;;;;;;;;;;-1.85;61.35;96471.22;6398428;27;20007;-65
2021/12/27 08:20:06;;;;;;;;;;;;;;;-1.57;60.47;96468.88;6397260;27;19923;-66
2021/12/27 08:23:10;;;;;;;;;;;;;;;-1.46;60.12;96477.19;6397511;27;19930;-65
2021/12/27 08:26:13;;;;;;;;;;;;;;;-1.75;59.16;96477.03;6397466;27;19923;-65
2021/12/27 08:29:14;;;;;;;;;;;;;;;-2.03;59.99;96482.81;6398144;27;19923;-67
2021/12/27 08:32:15;;;;;;;;;;;;;;;-2.15;60.96;96472.72;6397475;27;20367;-64
2021/12/27 08:35:20;;;;;;;;;;;;;;;-1.98;61.79;96475.81;6397985;27;19923;-65
2021/12/27 08:38:21;;;;;;;;;;;;;;;-1.79;59.89;96485.72;6396703;27;19927;-65
2021/12/27 08:41:27;;;;;;;;;;;;;;;-1.87;61.12;96488.44;6396896;27;19929;-65
2021/12/27 08:44:31;;;;;;;;;;;;;;;-1.89;62.25;96493.66;6397920;27;20029;-66
2021/12/27 08:47:35;;;;;;;;;;;;;;;-1.66;62.12;96487.13;6397598;27;19999;-65
2021/12/27 08:50:38;;;;;;;;;;;;;;;-1.87;59.64;96484.16;6396724;27;20265;-65
2021/12/27 08:53:42;;;;;;;;;;;;;;;-1.93;60.24;96486.00;6396630;27;20308;-65
2021/12/27 08:56:43;;;;;;;;;;;;;;;-1.48;59.73;96484.13;6397873;27;19923;-65
2021/12/27 08:59:44;;;;;;;;;;;;;;;-0.64;57.28;96495.81;6397316;27;19923;-65
2021/12/27 09:02:49;;;;;;;;;;;;;;;0.30;55.40;96492.25;6397039;27;20017;-65
2021/12/27 09:05:55;;;;;;;;;;;;;;;0.94;53.24;96493.72;6397374;27;19923;-66
2021/12/27 09:08:59;;;;;;;;;;;;;;;0.99;51.52;96489.19;6379338;27;19946;-67
2021/12/27 09:12:02;;;;;;;;;;;;;;;1.38;52.68;96489.59;6397373;27;20010;-69
2021/12/27 09:15:06;;;;;;;;;;;;;;;1.59;52.54;96488.03;6396381;27;20396;-68
2021/12/27 09:18:07;;;;;;;;;;;;;;;1.28;51.74;96491.66;6396301;27;19949;-68
2021/12/27 09:21:09;;;;;;;;;;;;;;;0.83;50.61;96481.94;6396212;27;19922;-67
2021/12/27 09:24:10;;;;;;;;;;;;;;;1.48;49.31;96480.59;6396345;27;20421;-71
2021/12/27 09:27:14;;;;;;;;;;;;;;;2.23;47.72;96487.38;6396748;27;20392;-70
2021/12/27 09:30:15;;;;;;;;;;;;;;;2.28;45.92;96477.69;6377759;27;20255;-72
2021/12/27 09:33:22;;;;;;;;;;;;;;;1.79;46.62;96490.75;6397276;27;19923;-71
2021/12/27 09:36:23;;;;;;;;;;;;;;;1.57;48.59;96489.81;6398731;27;20406;-72
2021/12/27 09:39:26;;;;;;;;;;;;;;;2.38;46.60;96489.41;6402745;27;19927;-71
2021/12/27 09:42:30;;;;;;;;;;;;;;;3.09;44.26;96490.03;6401330;27;19930;-71
2021/12/27 09:45:31;;;;;;;;;;;;;;;3.95;41.99;96494.16;6401514;27;19923;-68
2021/12/27 09:48:35;;;;;;;;;;;;;;;3.82;40.06;96490.38;6384206;27;19927;-68
2021/12/27 09:51:42;;;;;;;;;;;;;;;3.31;40.86;96496.94;6402241;27;19945;-67
2021/12/27 09:54:49;;;;;;;;;;;;;;;2.77;40.55;96491.31;6401859;27;20017;-68
2021/12/27 09:57:55;;;;;;;;;;;;;;;2.33;41.11;96488.75;6401904;27;19923;-67
2021/12/27 10:01:02;;;;;;;;;;;;;;;2.20;42.26;96490.94;6401085;27;19922;-67
2021/12/27 10:04:07;;;;;;;;;;;;;;;1.94;40.87;96488.47;6367087;27;20115;-65
2021/12/27 10:07:19;;;;;;;;;;;;;;;1.56;41.67;96493.31;6401968;27;19923;-65
2021/12/27 10:10:22;;;;;;;;;;;;;;;0.82;43.03;96494.94;6400519;27;20064;-63
2021/12/27 10:13:23;;;;;;;;;;;;;;;-0.84;46.03;96498.91;6382627;27;20445;-65
2021/12/27 10:16:25;;;;;;;;;;;;;;;-2.37;49.94;96491.22;6401288;27;19923;-70
2021/12/27 10:19:29;;;;;;;;;;;;;;;-3.10;51.97;96490.03;6401235;27;19923;-72
2021/12/27 10:22:36;;;;;;;;;;;;;;;-3.37;53.45;96492.16;6401126;27;19923;-70
2021/12/27 10:25:37;;;;;;;;;;;;;;;-3.79;53.63;96493.69;6401106;27;20415;-69
2021/12/27 10:28:38;;;;;;;;;;;;;;;-4.13;54.00;96505.31;6400475;27;19923;-68
2021/12/27 10:31:52;;;;;;;;;;;;;;;-4.22;53.83;96505.41;6400261;27;19930;-69
2021/12/27 10:34:56;;;;;;;;;;;;;;;-4.91;54.96;96502.78;6400971;27;19923;-68
2021/12/27 10:38:10;;;;;;;;;;;;;;;-5.39;56.69;96505.78;6401168;27;19923;-69
2021/12/27 10:41:14;;;;;;;;;;;;;;;-5.48;56.62;96511.84;6400101;27;19923;-68
2021/12/27 10:44:19;;;;;;;;;;;;;;;-5.48;56.41;96506.72;6400792;27;20025;-67
2021/12/27 10:47:31;;;;;;;;;;;;;;;-5.79;56.21;96510.38;6399537;27;20408;-68
2021/12/27 10:50:37;;;;;;;;;;;;;;;-5.94;57.00;96512.19;6399819;27;19923;-68
2021/12/27 10:53:45;;;;;;;;;;;;;;;-5.84;56.42;96506.97;6400412;27;19930;-68
2021/12/27 10:56:50;;;;;;;;;;;;;;;-6.22;57.59;96513.22;6400468;27;19923;-69
2021/12/27 10:59:53;;;;;;;;;;;;;;;-6.16;57.36;96514.03;6399465;27;20388;-68
2021/12/27 11:02:54;;;;;;;;;;;;;;;-6.36;57.17;96516.69;6399230;27;20907;-67
2021/12/27 11:05:55;;;;;;;;;;;;;;;-6.50;58.30;96522.72;6399708;27;19923;-68
2021/12/27 11:08:58;;;;;;;;;;;;;;;-6.57;57.60;96525.31;6399111;27;19945;-68
2021/12/27 11:11:59;;;;;;;;;;;;;;;-6.77;58.75;96525.34;6400018;27;20019;-68
2021/12/27 11:15:03;;;;;;;;;;;;;;;-6.94;57.78;96533.91;6400046;27;19930;-68
2021/12/27 11:18:05;;;;;;;;;;;;;;;-7.20;59.27;96533.97;6398871;27;19930;-68
2021/12/27 11:21:10;;;;;;;;;;;;;;;-7.30;59.62;96539.09;6398774;27;19930;-67
2021/12/27 11:24:11;;;;;;;;;;;;;;;-7.29;58.65;96543.34;6399693;27;19934;-68
2021/12/27 11:27:14;;;;;;;;;;;;;;;-7.36;58.60;96549.31;6399796;27;19923;-69
2021/12/27 11:30:22;;;;;;;;;;;;;;;-7.39;58.31;96546.75;6399535;27;19923;-69
2021/12/27 11:33:26;;;;;;;;;;;;;;;-7.46;58.47;96547.59;6399638;27;20322;-68
2021/12/27 11:36:29;;;;;;;;;;;;;;;-7.43;58.19;96546.75;6399361;27;19927;-67
2021/12/27 11:39:35;;;;;;;;;;;;;;;-7.77;59.17;96560.34;6398436;27;20352;-67
2021/12/27 11:42:55;;;;;;;;;;;;;;;-7.58;57.49;96570.59;6399160;27;19923;-69
2021/12/27 11:46:05;;;;;;;;;;;;;;;-7.80;58.60;96575.66;6399141;27;19923;-68
2021/12/27 11:49:06;;;;;;;;;;;;;;;-8.11;59.02;96584.09;6398462;27;20322;-68
2021/12/27 11:52:23;;;;;;;;;;;;;;;-8.22;59.13;96586.59;6398889;27;19923;-68
2021/12/27 11:55:37;;;;;;;;;;;;;;;-8.13;58.99;96592.59;6398561;27;20392;-68
2021/12/27 11:58:39;;;;;;;;;;;;;;;-7.95;57.93;96590.97;6397320;27;19923;-68
2021/12/27 12:01:42;;;;;;;;;;;;;;;-7.86;57.13;96585.88;6398596;27;19922;-68
2021/12/27 12:04:45;;;;;;;;;;;;;;;-7.98;56.89;96588.38;6398647;27;20319;-68
2021/12/27 12:07:50;;;;;;;;;;;;;;;-7.95;57.19;96591.81;6398425;27;19923;-68
2021/12/27 12:10:57;;;;;;;;;;;;;;;-7.92;56.95;96601.19;6397404;27;20308;-68
2021/12/27 12:14:17;;;;;;;;;;;;;;;-7.78;56.24;96599.53;6397619;27;20018;-68
2021/12/27 12:17:34;;;;;;;;;;;;;;;-7.78;55.81;96602.06;6398443;27;19930;-67
2021/12/27 12:20:46;;;;;;;;;;;;;;;-7.89;55.91;96600.34;6419602;27;19998;-68
2021/12/27 12:23:55;;;;;;;;;;;;;;;-7.96;56.03;96609.66;6419978;27;19968;-68
2021/12/27 12:26:56;;;;;;;;;;;;;;;-8.14;56.58;96613.88;6418940;27;19922;-67
2021/12/27 12:30:00;;;;;;;;;;;;;;;-8.09;56.28;96613.91;6419388;27;19923;-66
2021/12/27 12:33:05;;;;;;;;;;;;;;;-8.19;56.35;96613.00;6419495;27;20017;-69
2021/12/27 12:36:06;;;;;;;;;;;;;;;-8.13;56.07;96610.47;6417740;27;20403;-68
2021/12/27 12:39:10;;;;;;;;;;;;;;;-8.33;56.51;96624.84;6419192;27;20295;-69
2021/12/27 12:42:15;;;;;;;;;;;;;;;-8.23;56.30;96631.69;6419339;27;19923;-68
2021/12/27 12:45:28;;;;;;;;;;;;;;;-8.32;56.83;96641.88;6419002;27;20303;-68
2021/12/27 12:48:29;;;;;;;;;;;;;;;-8.43;56.63;96633.34;6419037;27;20300;-68
2021/12/27 12:51:42;;;;;;;;;;;;;;;-8.39;56.26;96640.16;6419173;27;19923;-68
2021/12/27 12:54:46;;;;;;;;;;;;;;;-8.44;56.95;96646.94;6419254;27;19918;-68
2021/12/27 12:57:48;;;;;;;;;;;;;;;-8.34;56.26;96648.66;6400434;27;19923;-67
2021/12/27 13:00:51;;;;;;;;;;;;;;;-8.39;56.09;96640.16;6419030;27;19922;-68
2021/12/27 13:03:59;;;;;;;;;;;;;;;-8.45;56.08;96645.22;6418758;27;19923;-69
2021/12/27 13:07:00;;;;;;;;;;;;;;;-8.43;56.04;96644.41;6400336;27;19930;-71
2021/12/27 13:10:36;;;;;;;;;;;;;;;-8.44;56.23;96657.13;6403404;27;20264;-71
2021/12/27 13:13:57;;;;;;;;;;;;;;;-8.42;56.17;96645.25;6418744;27;19923;-67
2021/12/27 13:17:22;;;;;;;;;;;;;;;-8.38;55.74;96659.69;6418651;27;19927;-68
2021/12/27 13:20:48;;;;;;;;;;;;;;;-8.38;55.53;96662.22;6418323;27;20380;-68
2021/12/27 13:24:07;;;;;;;;;;;;;;;-8.72;56.13;96672.25;6418582;27;20056;-69
2021/12/27 13:27:28;;;;;;;;;;;;;;;-8.69;56.40;96679.97;6418354;27;19923;-68
2021/12/27 13:30:52;;;;;;;;;;;;;;;-8.64;56.17;96670.63;6392951;27;19923;-68
2021/12/27 13:34:15;;;;;;;;;;;;;;;-8.69;55.69;96672.31;6401351;27;19931;-67
2021/12/27 13:37:35;;;;;;;;;;;;;;;-8.83;56.62;96669.66;6400446;27;20387;-68
2021/12/27 13:41:07;;;;;;;;;;;;;;;-8.72;56.24;96671.41;6400436;27;20025;-68
2021/12/27 13:44:31;;;;;;;;;;;;;;;-8.67;56.54;96675.69;6400561;27;19923;-69
2021/12/27 13:47:52;;;;;;;;;;;;;;;-8.85;56.50;96680.69;6400490;27;19923;-68
2021/12/27 13:51:16;;;;;;;;;;;;;;;-8.82;56.28;96686.66;6400614;27;19980;-68
2021/12/27 13:54:42;;;;;;;;;;;;;;;-9.13;57.57;96680.44;6400761;27;19930;-69
2021/12/27 13:58:22;;;;;;;;;;;;;;;-9.30;57.67;96687.94;6400364;27;20323;-69
2021/12/27 14:01:55;;;;;;;;;;;;;;;-9.59;58.67;96684.25;6400219;27;20327;-68
2021/12/27 14:05:14;;;;;;;;;;;;;;;-9.95;59.49;96686.38;6399912;27;19923;-67
2021/12/27 14:08:34;;;;;;;;;;;;;;;-10.20;60.32;96684.38;6399855;27;19927;-69
2021/12/27 14:11:56;;;;;;;;;;;;;;;-10.55;60.62;96702.59;6399977;27;19923;-68
2021/12/27 14:15:25;;;;;;;;;;;;;;;-10.08;59.70;96684.53;6399955;27;20385;-69
2021/12/27 14:19:05;;;;;;;;;;;;;;;-10.17;59.32;96685.25;6399289;27;19923;-68
2021/12/27 14:22:26;;;;;;;;;;;;;;;-10.14;59.67;96684.44;6399627;27;19923;-67
2021/12/27 14:25:46;;;;;;;;;;;;;;;-9.96;58.89;96674.50;6399757;27;19923;-68
2021/12/27 14:29:19;;;;;;;;;;;;;;;-9.90;58.23;96677.97;6399802;27;19923;-69
2021/12/27 14:32:42;;;;;;;;;;;;;;;-10.05;58.19;96674.38;6399292;27;19972;-69
2021/12/27 14:36:03;;;;;;;;;;;;;;;-10.20;58.56;96666.56;6399219;27;19931;-68
2021/12/27 14:39:23;;;;;;;;;;;;;;;-10.50;59.08;96665.38;6399387;27;19923;-69
2021/12/27 14:42:42;;;;;;;;;;;;;;;-10.65;59.73;96677.88;6398645;27;19923;-69
2021/12/27 14:46:03;;;;;;;;;;;;;;;-10.57;59.75;96683.91;6383648;27;20353;-70
2021/12/27 14:49:26;;;;;;;;;;;;;;;-10.92;60.14;96691.88;6399113;27;20327;-67
2021/12/27 14:52:48;;;;;;;;;;;;;;;-10.93;60.09;96705.41;6399235;27;19918;-69
2021/12/27 14:56:07;;;;;;;;;;;;;;;-11.13;60.69;96706.75;6398927;27;20344;-69
2021/12/27 14:59:30;;;;;;;;;;;;;;;-10.87;60.23;96700.44;6398952;27;19923;-68
2021/12/27 15:02:52;;;;;;;;;;;;;;;-10.81;60.13;96701.34;6398800;27;19923;-68
2021/12/27 15:06:14;;;;;;;;;;;;;;;-10.95;60.21;96701.16;6398589;27;20451;-69
2021/12/27 15:09:35;;;;;;;;;;;;;;;-10.69;59.29;96699.84;6397656;27;19923;-69
2021/12/27 15:12:56;;;;;;;;;;;;;;;-10.58;59.00;96707.66;6397918;27;20014;-69
2021/12/27 15:16:05;;;;;;;;;;;;;;;-10.58;58.91;96710.19;6381268;27;19930;-71
2021/12/27 15:19:06;;;;;;;;;;;;;;;-10.66;58.89;96711.75;6398133;27;20053;-68
2021/12/27 15:22:30;;;;;;;;;;;;;;;-10.67;59.48;96712.56;6398214;27;19923;-69
2021/12/27 15:25:37;;;;;;;;;;;;;;;-10.60;59.32;96709.31;6379600;27;20418;-68
2021/12/27 15:28:38;;;;;;;;;;;;;;;-10.68;59.70;96706.63;6397703;27;19992;-68
2021/12/27 15:31:42;;;;;;;;;;;;;;;-10.61;59.41;96707.59;6379735;27;20029;-69
2021/12/27 15:34:49;;;;;;;;;;;;;;;-10.75;59.89;96706.53;6398104;27;20022;-68
2021/12/27 15:38:10;;;;;;;;;;;;;;;-10.56;59.85;96716.13;6397643;27;19923;-67
2021/12/27 15:41:14;;;;;;;;;;;;;;;-10.47;60.10;96725.59;6398143;27;20015;-68
2021/12/27 15:44:15;;;;;;;;;;;;;;;-10.61;60.86;96727.94;6396826;27;20026;-69
2021/12/27 15:47:17;;;;;;;;;;;;;;;-10.29;60.66;96727.53;6397181;27;19950;-68
2021/12/27 15:50:19;;;;;;;;;;;;;;;-10.25;60.54;96734.34;6397450;27;20392;-68
2021/12/27 15:53:22;;;;;;;;;;;;;;;-10.36;61.29;96746.09;6396978;27;20030;-68
2021/12/27 15:56:24;;;;;;;;;;;;;;;-10.36;61.69;96738.44;6397210;27;20412;-68
2021/12/27 15:59:26;;;;;;;;;;;;;;;-10.53;62.15;96746.72;6378633;27;19948;-68
2021/12/27 16:02:47;;;;;;;;;;;;;;;-10.44;62.52;96753.63;6397262;27;19930;-69
2021/12/27 16:05:53;;;;;;;;;;;;;;;-10.55;63.12;96768.72;6379545;27;19926;-70
2021/12/27 16:08:54;;;;;;;;;;;;;;;-10.38;63.04;96757.94;6378359;27;20025;-68